Time;durP1;ratioP1;P1;durP2;ratioP2;P2;SDS_P1;SDS_P2;PMS_P1;PMS_P2;Temp;Humidity;BMP_temperature;BMP_pressure;BME280_temperature;BME280_humidity;BME280_pressure;Samples;Min_cycle;Max_cycle;Signal;HPM_P1;HPM_P2
2024/03/15 00:00:17;;;;;;;;;;;11.60;94.60;;;;;;5002480;28;20010;-73
2024/03/15 00:02:46;;;;;;;;;;;11.50;94.90;;;;;;5000957;28;20357;-73
2024/03/15 00:05:12;;;;;;;;;;;11.40;95.10;;;;;;5002646;28;20001;-73
2024/03/15 00:07:38;;;;;;;;;;;11.30;95.20;;;;;;5002508;28;19998;-73
2024/03/15 00:10:03;;;;;;;;;;;11.40;95.30;;;;;;5002642;28;20040;-73
2024/03/15 00:12:29;;;;;;;;;;;11.40;95.30;;;;;;5008984;28;20004;-73
2024/03/15 00:14:55;;;;;;;;;;;11.40;95.00;;;;;;5002293;28;20484;-73
2024/03/15 00:17:20;;;;;;;;;;;11.40;95.10;;;;;;5004134;28;20416;-73
2024/03/15 00:19:46;;;;;;;;;;;11.40;95.20;;;;;;5002605;28;20010;-73
2024/03/15 00:22:11;;;;;;;;;;;11.50;95.10;;;;;;5001641;28;19994;-73
2024/03/15 00:24:37;;;;;;;;;;;11.30;95.20;;;;;;5004518;28;20005;-72
2024/03/15 00:27:03;;;;;;;;;;;11.30;95.40;;;;;;4999728;28;19997;-73
2024/03/15 00:29:28;;;;;;;;;;;11.20;95.70;;;;;;5004002;28;20033;-73
2024/03/15 00:31:57;;;;;;;;;;;11.10;95.70;;;;;;5004136;28;20469;-73
2024/03/15 00:34:23;;;;;;;;;;;11.20;95.80;;;;;;5002056;28;20466;-72
2024/03/15 00:36:49;;;;;;;;;;;11.20;95.60;;;;;;4998987;28;19987;-73
2024/03/15 00:39:19;;;;;;;;;;;11.20;95.50;;;;;;5003987;28;20648;-72
2024/03/15 00:41:44;;;;;;;;;;;11.20;95.60;;;;;;5004998;28;20090;-73
2024/03/15 00:44:10;;;;;;;;;;;11.20;95.60;;;;;;5002709;28;20077;-73
2024/03/15 00:46:35;;;;;;;;;;;11.20;95.70;;;;;;5002539;28;20097;-73
2024/03/15 00:49:01;;;;;;;;;;;11.10;95.90;;;;;;5008656;28;20001;-72
2024/03/15 00:51:26;;;;;;;;;;;11.10;96.00;;;;;;5003808;28;20545;-73
2024/03/15 00:53:52;;;;;;;;;;;11.20;95.80;;;;;;5002650;28;20034;-73
2024/03/15 00:56:17;;;;;;;;;;;11.20;96.00;;;;;;5004870;28;20112;-73
2024/03/15 00:58:43;;;;;;;;;;;11.20;96.20;;;;;;5001712;28;19999;-72
2024/03/15 01:01:10;;;;;;;;;;;11.00;96.30;;;;;;5002094;28;20010;-72
2024/03/15 01:03:36;;;;;;;;;;;10.90;96.90;;;;;;5008832;28;19999;-72
2024/03/15 01:06:01;;;;;;;;;;;10.80;97.10;;;;;;5002282;28;20045;-72
2024/03/15 01:08:28;;;;;;;;;;;10.80;97.30;;;;;;5002867;28;19990;-73
2024/03/15 01:10:53;;;;;;;;;;;10.80;97.30;;;;;;5001642;28;20449;-72
2024/03/15 01:13:19;;;;;;;;;;;10.80;97.30;;;;;;5002883;28;19991;-73
2024/03/15 01:15:45;;;;;;;;;;;10.80;97.60;;;;;;5002304;28;19990;-72
2024/03/15 01:18:11;;;;;;;;;;;10.80;97.70;;;;;;5004552;28;19990;-73
2024/03/15 01:20:37;;;;;;;;;;;10.80;97.80;;;;;;5001621;28;20021;-73
2024/03/15 01:23:02;;;;;;;;;;;10.80;98.00;;;;;;5001679;28;20675;-73
2024/03/15 01:25:29;;;;;;;;;;;10.90;97.90;;;;;;5005488;28;19994;-74
2024/03/15 01:27:56;;;;;;;;;;;10.90;97.90;;;;;;5002729;28;19990;-73
2024/03/15 01:30:22;;;;;;;;;;;10.80;98.20;;;;;;5002091;28;20020;-73
2024/03/15 01:32:47;;;;;;;;;;;10.80;98.30;;;;;;5001367;28;20446;-74
2024/03/15 01:35:13;;;;;;;;;;;10.70;98.70;;;;;;5005422;28;20002;-73
2024/03/15 01:37:40;;;;;;;;;;;10.80;98.90;;;;;;5001403;28;20001;-73
2024/03/15 01:40:09;;;;;;;;;;;10.80;99.10;;;;;;5005089;28;20010;-73
2024/03/15 01:42:35;;;;;;;;;;;10.80;99.00;;;;;;5000525;28;20030;-73
2024/03/15 01:45:01;;;;;;;;;;;10.80;99.00;;;;;;5002230;28;19990;-73
2024/03/15 01:47:27;;;;;;;;;;;10.70;99.30;;;;;;5004469;28;20422;-73
2024/03/15 01:49:56;;;;;;;;;;;10.70;99.30;;;;;;5005591;28;19991;-73
2024/03/15 01:52:22;;;;;;;;;;;10.80;99.40;;;;;;5004806;28;20029;-73
2024/03/15 01:54:48;;;;;;;;;;;10.80;99.70;;;;;;5006129;28;20001;-73
2024/03/15 01:57:17;;;;;;;;;;;10.80;99.70;;;;;;5010313;28;20018;-72
2024/03/15 01:59:46;;;;;;;;;;;10.80;99.90;;;;;;5007448;28;20029;-73
2024/03/15 02:02:14;;;;;;;;;;;10.70;99.90;;;;;;5005925;28;20026;-73
2024/03/15 02:04:40;;;;;;;;;;;10.60;99.90;;;;;;5006083;28;19991;-73
2024/03/15 02:07:06;;;;;;;;;;;10.60;99.90;;;;;;4998127;28;19990;-73
2024/03/15 02:09:32;;;;;;;;;;;10.60;99.90;;;;;;5004372;28;20015;-73
2024/03/15 02:11:57;;;;;;;;;;;10.40;99.90;;;;;;5004156;28;19998;-73
2024/03/15 02:14:23;;;;;;;;;;;10.40;99.90;;;;;;5005832;28;20644;-73
2024/03/15 02:16:49;;;;;;;;;;;10.40;99.90;;;;;;5004858;28;20000;-73
2024/03/15 02:19:15;;;;;;;;;;;10.40;99.90;;;;;;5006657;28;19998;-73
2024/03/15 02:21:41;;;;;;;;;;;10.40;99.90;;;;;;5005509;28;20010;-73
2024/03/15 02:24:06;;;;;;;;;;;10.60;99.90;;;;;;5007271;28;20428;-73
2024/03/15 02:26:35;;;;;;;;;;;10.70;99.90;;;;;;5004815;28;20040;-73
2024/03/15 02:29:04;;;;;;;;;;;10.80;99.90;;;;;;5006633;28;19990;-72
2024/03/15 02:31:30;;;;;;;;;;;10.70;99.90;;;;;;5004450;28;20366;-73
2024/03/15 02:33:55;;;;;;;;;;;10.70;99.90;;;;;;5004448;28;20001;-73
2024/03/15 02:36:21;;;;;;;;;;;10.70;99.90;;;;;;5005020;28;19990;-73
2024/03/15 02:38:49;;;;;;;;;;;10.70;99.90;;;;;;5003696;28;20017;-73
2024/03/15 02:41:15;;;;;;;;;;;10.70;99.90;;;;;;5000181;28;20034;-73
2024/03/15 02:43:46;;;;;;;;;;;10.80;99.90;;;;;;5004124;28;20153;-73
2024/03/15 02:46:14;;;;;;;;;;;10.80;99.90;;;;;;5004355;28;19990;-73
2024/03/15 02:48:39;;;;;;;;;;;10.80;99.90;;;;;;5006508;28;20520;-73
2024/03/15 02:51:05;;;;;;;;;;;10.70;99.90;;;;;;5006325;28;19994;-73
2024/03/15 02:53:31;;;;;;;;;;;10.50;99.90;;;;;;5006718;28;20001;-73
2024/03/15 02:55:59;;;;;;;;;;;10.50;99.90;;;;;;5007777;28;20512;-73
2024/03/15 02:58:26;;;;;;;;;;;10.60;99.90;;;;;;5005807;28;19990;-73
2024/03/15 03:00:51;;;;;;;;;;;10.80;99.90;;;;;;5005511;28;20006;-73
2024/03/15 03:03:17;;;;;;;;;;;10.90;99.90;;;;;;5007107;28;19990;-73
2024/03/15 03:05:43;;;;;;;;;;;11.00;99.90;;;;;;5003724;28;19990;-73
2024/03/15 03:08:09;;;;;;;;;;;11.10;99.90;;;;;;5004006;28;20419;-73
2024/03/15 03:10:34;;;;;;;;;;;11.00;99.90;;;;;;5004214;28;19999;-73
2024/03/15 03:13:00;;;;;;;;;;;11.00;99.90;;;;;;5004237;28;19995;-73
2024/03/15 03:15:26;;;;;;;;;;;11.20;99.90;;;;;;5004770;28;20086;-73
2024/03/15 03:17:51;;;;;;;;;;;11.20;99.90;;;;;;5009649;28;20001;-73
2024/03/15 03:20:20;;;;;;;;;;;11.20;99.90;;;;;;5003744;28;20488;-73
2024/03/15 03:22:48;;;;;;;;;;;11.20;99.90;;;;;;5005179;28;19994;-73
2024/03/15 03:25:14;;;;;;;;;;;11.20;99.90;;;;;;5004004;28;19986;-73
2024/03/15 03:27:40;;;;;;;;;;;11.30;99.90;;;;;;5006019;28;20108;-73
2024/03/15 03:30:06;;;;;;;;;;;11.30;99.90;;;;;;5003145;28;20064;-74
2024/03/15 03:32:32;;;;;;;;;;;11.30;99.90;;;;;;5003328;28;20096;-74
2024/03/15 03:34:57;;;;;;;;;;;11.30;99.90;;;;;;5002854;28;20571;-73
2024/03/15 03:37:23;;;;;;;;;;;11.20;99.90;;;;;;5005506;28;20727;-73
2024/03/15 03:39:49;;;;;;;;;;;11.20;99.90;;;;;;5003120;28;20540;-73
2024/03/15 03:42:14;;;;;;;;;;;11.20;99.90;;;;;;5004132;28;20101;-73
2024/03/15 03:44:41;;;;;;;;;;;11.20;99.90;;;;;;5003651;28;20037;-73
2024/03/15 03:47:09;;;;;;;;;;;11.10;99.90;;;;;;5003579;28;19990;-73
2024/03/15 03:49:34;;;;;;;;;;;11.10;99.90;;;;;;5006792;28;19989;-73
2024/03/15 03:52:00;;;;;;;;;;;11.00;99.90;;;;;;5003192;28;20054;-73
2024/03/15 03:54:25;;;;;;;;;;;10.90;99.90;;;;;;5005864;28;20056;-73
2024/03/15 03:56:51;;;;;;;;;;;10.80;99.90;;;;;;5007433;28;20065;-73
2024/03/15 03:59:16;;;;;;;;;;;10.70;99.90;;;;;;5002824;28;20084;-73
2024/03/15 04:01:43;;;;;;;;;;;10.60;99.90;;;;;;5005722;28;20010;-73
2024/03/15 04:04:08;;;;;;;;;;;10.20;99.90;;;;;;5003656;28;20002;-73
2024/03/15 04:06:34;;;;;;;;;;;10.00;99.90;;;;;;5010176;28;20381;-73
2024/03/15 04:09:00;;;;;;;;;;;10.00;99.90;;;;;;5003031;28;20494;-73
2024/03/15 04:11:26;;;;;;;;;;;10.10;99.90;;;;;;5002127;28;20077;-73
2024/03/15 04:13:52;;;;;;;;;;;10.10;99.90;;;;;;5003766;28;19994;-73
2024/03/15 04:16:18;;;;;;;;;;;10.10;99.90;;;;;;5006673;28;19998;-73
2024/03/15 04:18:44;;;;;;;;;;;10.10;99.90;;;;;;5000552;28;19991;-73
2024/03/15 04:21:10;;;;;;;;;;;10.30;99.90;;;;;;5003615;28;20006;-73
2024/03/15 04:23:36;;;;;;;;;;;10.40;99.90;;;;;;5002631;28;20005;-73
2024/03/15 04:26:02;;;;;;;;;;;10.30;99.90;;;;;;5003736;28;19998;-73
2024/03/15 04:28:28;;;;;;;;;;;10.30;99.90;;;;;;5005411;28;19994;-73
2024/03/15 04:30:56;;;;;;;;;;;10.40;99.90;;;;;;5005175;28;20497;-73
2024/03/15 04:33:22;;;;;;;;;;;10.40;99.90;;;;;;5004340;28;20015;-73
2024/03/15 04:35:50;;;;;;;;;;;10.40;99.90;;;;;;5005260;28;19998;-73
2024/03/15 04:38:15;;;;;;;;;;;10.40;99.90;;;;;;5002064;28;19994;-73
2024/03/15 04:40:41;;;;;;;;;;;10.50;99.90;;;;;;5001586;28;20010;-73
2024/03/15 04:43:07;;;;;;;;;;;10.50;99.90;;;;;;5002422;28;19995;-73
2024/03/15 04:45:32;;;;;;;;;;;10.50;99.90;;;;;;5004270;28;20001;-73
2024/03/15 04:48:00;;;;;;;;;;;10.60;99.90;;;;;;5006362;28;20093;-73
2024/03/15 04:50:26;;;;;;;;;;;10.70;99.90;;;;;;5004602;28;19994;-72
2024/03/15 04:52:52;;;;;;;;;;;10.60;99.90;;;;;;5000838;28;19996;-72
2024/03/15 04:55:19;;;;;;;;;;;10.60;99.90;;;;;;5004721;28;19990;-72
2024/03/15 04:57:46;;;;;;;;;;;10.70;99.90;;;;;;5006610;28;20037;-72
2024/03/15 05:00:18;;;;;;;;;;;10.80;99.90;;;;;;5003492;28;20017;-73
2024/03/15 05:02:50;;;;;;;;;;;10.80;99.90;;;;;;5006193;28;20003;-73
2024/03/15 05:05:16;;;;;;;;;;;10.70;99.90;;;;;;5000845;28;19990;-73
2024/03/15 05:07:42;;;;;;;;;;;10.70;99.90;;;;;;5001323;28;20021;-73
2024/03/15 05:10:09;;;;;;;;;;;10.70;99.90;;;;;;5002709;28;20048;-74
2024/03/15 05:12:35;;;;;;;;;;;10.70;99.90;;;;;;5002149;28;20112;-74
2024/03/15 05:15:02;;;;;;;;;;;10.70;99.90;;;;;;5003615;28;19990;-73
2024/03/15 05:17:27;;;;;;;;;;;10.80;99.90;;;;;;5004039;28;20001;-73
2024/03/15 05:19:53;;;;;;;;;;;10.90;99.90;;;;;;5002216;28;20010;-73
2024/03/15 05:22:19;;;;;;;;;;;10.80;99.90;;;;;;5004444;28;20457;-74
2024/03/15 05:24:44;;;;;;;;;;;10.80;99.90;;;;;;5007580;28;19990;-73
2024/03/15 05:27:10;;;;;;;;;;;10.90;99.90;;;;;;5038861;28;20103;-73
2024/03/15 05:29:38;;;;;;;;;;;10.80;99.90;;;;;;5006207;28;20037;-73
2024/03/15 05:32:04;;;;;;;;;;;10.80;99.90;;;;;;5005761;28;19990;-73
2024/03/15 05:34:31;;;;;;;;;;;10.70;99.90;;;;;;5007032;28;20037;-73
2024/03/15 05:36:57;;;;;;;;;;;10.60;99.90;;;;;;5006854;28;20434;-73
2024/03/15 05:39:22;;;;;;;;;;;10.70;99.90;;;;;;5005986;28;20043;-73
2024/03/15 05:41:48;;;;;;;;;;;10.60;99.90;;;;;;5006480;28;20014;-73
2024/03/15 05:44:14;;;;;;;;;;;10.70;99.90;;;;;;5006838;28;20002;-73
2024/03/15 05:46:40;;;;;;;;;;;10.70;99.90;;;;;;4997434;28;19997;-73
2024/03/15 05:49:05;;;;;;;;;;;10.60;99.90;;;;;;5000778;28;20097;-72
2024/03/15 05:51:32;;;;;;;;;;;10.60;99.90;;;;;;5004320;28;20453;-73
2024/03/15 05:53:57;;;;;;;;;;;10.50;99.90;;;;;;5003810;28;20072;-73
2024/03/15 05:56:23;;;;;;;;;;;10.50;99.90;;;;;;4997309;28;20396;-72
2024/03/15 05:58:49;;;;;;;;;;;10.60;99.90;;;;;;5002115;28;20061;-72
2024/03/15 06:01:15;;;;;;;;;;;10.60;99.90;;;;;;4998160;28;20006;-72
2024/03/15 06:03:40;;;;;;;;;;;10.60;99.90;;;;;;5006440;28;19998;-72
2024/03/15 06:06:08;;;;;;;;;;;10.60;99.90;;;;;;5005522;28;19995;-72
2024/03/15 06:08:36;;;;;;;;;;;10.60;99.90;;;;;;4991036;28;20038;-72
2024/03/15 06:11:02;;;;;;;;;;;10.70;99.90;;;;;;5003425;28;20001;-71
2024/03/15 06:13:27;;;;;;;;;;;10.70;99.90;;;;;;5003952;28;19990;-72
2024/03/15 06:15:53;;;;;;;;;;;10.60;99.90;;;;;;5005787;28;20438;-71
2024/03/15 06:18:18;;;;;;;;;;;10.70;99.90;;;;;;4995742;28;20377;-72
2024/03/15 06:20:44;;;;;;;;;;;10.60;99.90;;;;;;5002038;28;20127;-72
2024/03/15 06:23:10;;;;;;;;;;;10.50;99.90;;;;;;5004337;28;19995;-71
2024/03/15 06:25:36;;;;;;;;;;;10.50;99.90;;;;;;5003872;28;20001;-72
2024/03/15 06:28:06;;;;;;;;;;;10.40;99.90;;;;;;5004840;28;20441;-72
2024/03/15 06:30:42;;;;;;;;;;;10.30;99.90;;;;;;5005056;28;20137;-71
2024/03/15 06:33:09;;;;;;;;;;;10.20;99.90;;;;;;5001511;28;19986;-72
2024/03/15 06:35:34;;;;;;;;;;;10.30;99.90;;;;;;5005965;28;20674;-72
2024/03/15 06:41:37;;;;;;;;;;;10.30;99.90;;;;;;5005330;28;20052;-72
2024/03/15 06:43:39;;;;;;;;;;;10.40;99.90;;;;;;5006953;28;20004;-71
2024/03/15 06:46:09;;;;;;;;;;;10.60;99.90;;;;;;4998790;28;19990;-73
2024/03/15 06:48:44;;;;;;;;;;;10.80;99.90;;;;;;5008127;28;19995;-72
2024/03/15 06:53:56;;;;;;;;;;;11.00;99.90;;;;;;5006913;28;20386;-72
2024/03/15 06:56:22;;;;;;;;;;;11.00;99.90;;;;;;5001526;28;20018;-71
2024/03/15 06:58:48;;;;;;;;;;;11.30;99.90;;;;;;5001402;28;20308;-71
2024/03/15 07:01:14;;;;;;;;;;;11.50;99.90;;;;;;5002623;28;20010;-71
2024/03/15 07:03:39;;;;;;;;;;;11.70;99.80;;;;;;5002756;28;20005;-71
2024/03/15 07:06:05;;;;;;;;;;;11.80;99.90;;;;;;5005387;28;19990;-73
2024/03/15 07:08:31;;;;;;;;;;;11.70;99.90;;;;;;5003132;28;20098;-69
2024/03/15 07:10:57;;;;;;;;;;;11.50;99.90;;;;;;5006015;28;19990;-70
2024/03/15 07:13:23;;;;;;;;;;;11.30;99.90;;;;;;5005884;28;19990;-70
2024/03/15 07:15:49;;;;;;;;;;;11.30;99.90;;;;;;5004589;28;20001;-70
2024/03/15 07:18:15;;;;;;;;;;;11.40;99.90;;;;;;5003693;28;20642;-70
2024/03/15 07:20:41;;;;;;;;;;;11.20;99.90;;;;;;5008162;28;20018;-71
2024/03/15 07:23:07;;;;;;;;;;;11.40;99.90;;;;;;5004478;28;19995;-73
2024/03/15 07:25:34;;;;;;;;;;;12.00;99.50;;;;;;5005727;28;19994;-71
2024/03/15 07:28:00;;;;;;;;;;;12.10;97.70;;;;;;5004587;28;19994;-70
2024/03/15 07:30:26;;;;;;;;;;;11.70;98.30;;;;;;5002653;28;20530;-71
2024/03/15 07:32:54;;;;;;;;;;;12.40;97.00;;;;;;5013148;28;19990;-71
2024/03/15 07:35:20;;;;;;;;;;;13.10;95.90;;;;;;5007668;28;19990;-71
2024/03/15 07:37:47;;;;;;;;;;;13.40;95.00;;;;;;5002601;28;20052;-71
2024/03/15 07:40:13;;;;;;;;;;;13.70;94.40;;;;;;5010203;28;20010;-71
2024/03/15 07:42:39;;;;;;;;;;;13.40;93.80;;;;;;5006189;28;20052;-70
2024/03/15 07:45:04;;;;;;;;;;;13.60;94.20;;;;;;5007739;28;19990;-71
2024/03/15 07:47:30;;;;;;;;;;;13.40;93.70;;;;;;5008642;28;19986;-71
2024/03/15 07:49:56;;;;;;;;;;;14.30;93.80;;;;;;5010246;28;20030;-71
2024/03/15 07:52:22;;;;;;;;;;;16.40;90.10;;;;;;5010757;28;19997;-72
2024/03/15 07:54:48;;;;;;;;;;;16.50;84.90;;;;;;5005799;28;20022;-72
2024/03/15 07:57:13;;;;;;;;;;;16.40;84.10;;;;;;5002671;28;20144;-71
2024/03/15 07:59:40;;;;;;;;;;;16.70;85.20;;;;;;5002810;28;20006;-71
2024/03/15 08:02:06;;;;;;;;;;;16.10;85.10;;;;;;5005943;28;19998;-71
2024/03/15 08:04:32;;;;;;;;;;;16.70;85.50;;;;;;5004277;28;19990;-71
2024/03/15 08:06:58;;;;;;;;;;;17.80;81.80;;;;;;5005896;28;20441;-71
2024/03/15 08:09:23;;;;;;;;;;;18.20;78.80;;;;;;5006269;28;19990;-71
2024/03/15 08:11:49;;;;;;;;;;;18.10;78.30;;;;;;5005916;28;20002;-71
2024/03/15 08:14:15;;;;;;;;;;;18.60;76.70;;;;;;5003342;28;20420;-71
2024/03/15 08:16:41;;;;;;;;;;;18.50;77.00;;;;;;5012940;28;20480;-71
2024/03/15 08:19:08;;;;;;;;;;;18.60;75.80;;;;;;5003655;28;20021;-71
2024/03/15 08:21:36;;;;;;;;;;;19.10;75.10;;;;;;5002930;28;20010;-71
2024/03/15 08:24:04;;;;;;;;;;;19.40;74.40;;;;;;5003289;28;19994;-72
2024/03/15 08:26:31;;;;;;;;;;;19.90;74.10;;;;;;5005903;28;20512;-71
2024/03/15 08:28:56;;;;;;;;;;;20.20;72.00;;;;;;5007898;28;20013;-72
2024/03/15 08:31:22;;;;;;;;;;;20.20;71.30;;;;;;5006598;28;20736;-71
2024/03/15 08:33:47;;;;;;;;;;;21.10;69.90;;;;;;5007583;28;19990;-71
2024/03/15 08:36:13;;;;;;;;;;;21.90;64.50;;;;;;5011548;28;19994;-71
2024/03/15 08:38:39;;;;;;;;;;;22.40;62.60;;;;;;5002780;28;20040;-71
2024/03/15 08:41:06;;;;;;;;;;;20.10;68.70;;;;;;5007581;28;20097;-71
2024/03/15 08:43:31;;;;;;;;;;;18.80;71.60;;;;;;5004933;28;19998;-71
2024/03/15 08:45:57;;;;;;;;;;;18.40;73.90;;;;;;5009648;28;19996;-72
2024/03/15 08:48:23;;;;;;;;;;;17.60;75.30;;;;;;5009759;28;20081;-72
2024/03/15 08:50:48;;;;;;;;;;;17.10;77.80;;;;;;5007552;28;20874;-73
2024/03/15 08:53:14;;;;;;;;;;;16.90;78.70;;;;;;5006138;28;19990;-73
2024/03/15 08:55:41;;;;;;;;;;;17.60;77.20;;;;;;5009056;28;19989;-73
2024/03/15 08:58:07;;;;;;;;;;;19.40;72.80;;;;;;5012680;28;20030;-73
2024/03/15 09:00:32;;;;;;;;;;;20.50;70.20;;;;;;5012415;28;20006;-72
2024/03/15 09:02:58;;;;;;;;;;;19.60;68.90;;;;;;5015194;28;19998;-71
2024/03/15 09:05:24;;;;;;;;;;;21.10;68.10;;;;;;5008727;28;19987;-71
2024/03/15 09:07:50;;;;;;;;;;;22.00;64.70;;;;;;5006746;28;19996;-70
2024/03/15 09:10:15;;;;;;;;;;;21.80;63.20;;;;;;5010535;28;19986;-71
2024/03/15 09:12:42;;;;;;;;;;;22.30;61.00;;;;;;5009400;28;19990;-73
2024/03/15 09:15:17;;;;;;;;;;;21.20;64.60;;;;;;5006854;28;19997;-73
2024/03/15 09:17:43;;;;;;;;;;;18.80;67.20;;;;;;5011764;28;20886;-73
2024/03/15 09:20:18;;;;;;;;;;;18.20;70.30;;;;;;5008635;28;20520;-72
2024/03/15 09:22:45;;;;;;;;;;;17.80;71.80;;;;;;5006054;28;20001;-73
2024/03/15 09:25:18;;;;;;;;;;;17.40;72.60;;;;;;5006061;28;19990;-73
2024/03/15 09:27:48;;;;;;;;;;;17.10;75.50;;;;;;5013754;28;19990;-73
2024/03/15 09:30:18;;;;;;;;;;;17.10;75.30;;;;;;5011630;28;20278;-73
2024/03/15 09:32:44;;;;;;;;;;;17.40;74.10;;;;;;5010829;28;20060;-72
2024/03/15 09:35:12;;;;;;;;;;;18.60;72.50;;;;;;5005960;28;19994;-72
2024/03/15 09:37:50;;;;;;;;;;;19.10;68.20;;;;;;5010994;28;19990;-73
2024/03/15 09:40:19;;;;;;;;;;;18.70;68.50;;;;;;5011397;28;20005;-73
2024/03/15 09:42:48;;;;;;;;;;;18.60;69.40;;;;;;5011315;28;20021;-73
2024/03/15 09:45:17;;;;;;;;;;;18.70;68.90;;;;;;5010868;28;20549;-72
2024/03/15 09:47:43;;;;;;;;;;;19.90;65.10;;;;;;5012961;28;20001;-72
2024/03/15 09:50:12;;;;;;;;;;;20.90;65.20;;;;;;5010723;28;20001;-73
2024/03/15 09:52:38;;;;;;;;;;;22.20;62.10;;;;;;5009955;28;20560;-74
2024/03/15 09:55:10;;;;;;;;;;;21.80;61.10;;;;;;5009588;28;19991;-72
2024/03/15 09:57:36;;;;;;;;;;;23.10;60.20;;;;;;5005990;28;20026;-72
2024/03/15 10:00:02;;;;;;;;;;;21.80;60.30;;;;;;5005753;28;20756;-71
2024/03/15 10:02:28;;;;;;;;;;;20.80;64.40;;;;;;5012157;28;19998;-72
2024/03/15 10:04:54;;;;;;;;;;;21.00;63.50;;;;;;5009959;28;20037;-71
2024/03/15 10:07:21;;;;;;;;;;;20.80;63.40;;;;;;5003510;28;20022;-71
2024/03/15 10:09:48;;;;;;;;;;;20.10;65.20;;;;;;5008327;28;19997;-72
2024/03/15 10:12:13;;;;;;;;;;;19.30;67.10;;;;;;5005705;28;20043;-71
2024/03/15 10:14:39;;;;;;;;;;;19.10;67.90;;;;;;5008429;28;20647;-71
2024/03/15 10:17:04;;;;;;;;;;;19.60;66.20;;;;;;5013617;28;20511;-71
2024/03/15 10:19:31;;;;;;;;;;;19.50;66.30;;;;;;5013504;28;19993;-71
2024/03/15 10:21:59;;;;;;;;;;;19.30;67.60;;;;;;5012521;28;20097;-71
2024/03/15 10:24:25;;;;;;;;;;;19.20;67.80;;;;;;5005746;28;20086;-71
2024/03/15 10:26:52;;;;;;;;;;;18.90;68.20;;;;;;5007911;28;20081;-71
2024/03/15 10:29:17;;;;;;;;;;;19.70;68.10;;;;;;5010246;28;20085;-71
2024/03/15 10:31:43;;;;;;;;;;;20.90;64.70;;;;;;5011066;28;20081;-71
2024/03/15 10:34:11;;;;;;;;;;;21.00;61.70;;;;;;5007165;28;20005;-72
2024/03/15 10:36:37;;;;;;;;;;;21.00;62.80;;;;;;5004388;28;20342;-71
2024/03/15 10:39:02;;;;;;;;;;;21.20;61.20;;;;;;5014159;28;19997;-71
2024/03/15 10:41:29;;;;;;;;;;;21.20;61.60;;;;;;5008478;28;20049;-71
2024/03/15 10:43:57;;;;;;;;;;;21.00;62.10;;;;;;5007303;28;20033;-72
2024/03/15 10:46:22;;;;;;;;;;;20.70;62.50;;;;;;5005086;28;20069;-71
2024/03/15 10:48:48;;;;;;;;;;;20.50;61.80;;;;;;5009192;28;20127;-71
2024/03/15 10:51:15;;;;;;;;;;;19.80;65.10;;;;;;5016698;28;20593;-71
2024/03/15 10:53:41;;;;;;;;;;;19.50;67.50;;;;;;5013386;28;20022;-71
2024/03/15 10:56:07;;;;;;;;;;;19.50;67.90;;;;;;5004752;28;20097;-71
2024/03/15 10:58:33;;;;;;;;;;;20.00;66.70;;;;;;5005220;28;19994;-71
2024/03/15 11:01:00;;;;;;;;;;;20.00;65.10;;;;;;5005140;28;20049;-71
2024/03/15 11:03:28;;;;;;;;;;;19.80;67.60;;;;;;5005928;28;19990;-71
2024/03/15 11:05:53;;;;;;;;;;;19.40;69.70;;;;;;5004882;28;20001;-71
2024/03/15 11:08:21;;;;;;;;;;;19.10;69.30;;;;;;5004106;28;19990;-71
2024/03/15 11:10:59;;;;;;;;;;;18.70;74.30;;;;;;5003281;28;20777;-71
2024/03/15 11:13:25;;;;;;;;;;;18.50;73.80;;;;;;5005988;28;20001;-71
2024/03/15 11:15:51;;;;;;;;;;;18.70;76.20;;;;;;5007741;28;19991;-71
2024/03/15 11:18:19;;;;;;;;;;;18.60;71.40;;;;;;5011149;28;19994;-71
2024/03/15 11:20:45;;;;;;;;;;;18.60;76.10;;;;;;5008663;28;20002;-71
2024/03/15 11:23:15;;;;;;;;;;;18.50;72.00;;;;;;5004025;28;20061;-71
2024/03/15 11:25:44;;;;;;;;;;;18.50;74.10;;;;;;5003024;28;20750;-71
2024/03/15 11:28:10;;;;;;;;;;;18.60;71.50;;;;;;5010783;28;20446;-70
2024/03/15 11:30:35;;;;;;;;;;;18.60;71.80;;;;;;5005241;28;19997;-70
2024/03/15 11:33:01;;;;;;;;;;;18.60;73.30;;;;;;5012003;28;20815;-71
2024/03/15 11:35:27;;;;;;;;;;;18.50;72.50;;;;;;5008712;28;19990;-71
2024/03/15 11:37:56;;;;;;;;;;;18.50;78.40;;;;;;5004215;28;20070;-72
2024/03/15 11:40:25;;;;;;;;;;;18.40;74.60;;;;;;5002786;28;20045;-71
2024/03/15 11:42:51;;;;;;;;;;;18.50;73.50;;;;;;5003991;28;19997;-71
2024/03/15 11:45:17;;;;;;;;;;;18.40;77.80;;;;;;5005263;28;19991;-71
2024/03/15 11:47:43;;;;;;;;;;;18.40;73.50;;;;;;5010234;28;19990;-71
2024/03/15 11:50:15;;;;;;;;;;;18.40;72.90;;;;;;5003972;28;19994;-71
2024/03/15 11:52:40;;;;;;;;;;;18.40;72.10;;;;;;5008967;28;20758;-71
2024/03/15 11:55:08;;;;;;;;;;;19.30;74.10;;;;;;5004036;28;19991;-71
2024/03/15 11:57:35;;;;;;;;;;;19.40;69.50;;;;;;5002933;28;20141;-71
2024/03/15 12:00:06;;;;;;;;;;;19.30;68.50;;;;;;5003659;28;20005;-71
2024/03/15 12:02:32;;;;;;;;;;;19.40;70.90;;;;;;5003374;28;20099;-71
2024/03/15 12:04:57;;;;;;;;;;;20.10;69.20;;;;;;5004322;28;19990;-71
2024/03/15 12:07:24;;;;;;;;;;;20.80;68.60;;;;;;5003113;28;19987;-71
2024/03/15 12:09:50;;;;;;;;;;;20.90;68.40;;;;;;5003159;28;20001;-71
2024/03/15 12:12:15;;;;;;;;;;;19.90;68.00;;;;;;5003070;28;19994;-71
2024/03/15 12:14:43;;;;;;;;;;;19.30;70.20;;;;;;5003905;28;20990;-71
2024/03/15 12:17:13;;;;;;;;;;;18.80;71.60;;;;;;5006155;28;20829;-71
2024/03/15 12:19:40;;;;;;;;;;;18.70;71.20;;;;;;5010062;28;20047;-71
2024/03/15 12:22:07;;;;;;;;;;;18.90;72.60;;;;;;5001908;28;20006;-71
2024/03/15 12:24:33;;;;;;;;;;;19.50;71.70;;;;;;5007126;28;20446;-71
2024/03/15 12:26:59;;;;;;;;;;;19.70;68.00;;;;;;5002554;28;19994;-71
2024/03/15 12:29:25;;;;;;;;;;;19.20;69.50;;;;;;5007401;28;20500;-72
2024/03/15 12:31:50;;;;;;;;;;;18.70;71.40;;;;;;5007347;28;19997;-71
2024/03/15 12:34:16;;;;;;;;;;;18.20;73.50;;;;;;5002720;28;19991;-71
2024/03/15 12:36:41;;;;;;;;;;;18.10;75.70;;;;;;5009125;28;19990;-71
2024/03/15 12:39:09;;;;;;;;;;;18.40;74.50;;;;;;5012440;28;19994;-71
2024/03/15 12:41:35;;;;;;;;;;;18.80;74.70;;;;;;5007959;28;20060;-71
2024/03/15 12:44:01;;;;;;;;;;;18.60;73.50;;;;;;5002927;28;20025;-71
2024/03/15 12:46:27;;;;;;;;;;;18.50;74.80;;;;;;5003086;28;19991;-71
2024/03/15 12:48:52;;;;;;;;;;;18.30;75.70;;;;;;5006437;28;19997;-71
2024/03/15 12:51:18;;;;;;;;;;;18.70;76.40;;;;;;5002956;28;19994;-71
2024/03/15 12:53:44;;;;;;;;;;;18.70;76.40;;;;;;5012050;28;20508;-71
2024/03/15 12:56:09;;;;;;;;;;;18.80;75.00;;;;;;5009359;28;20021;-71
2024/03/15 12:58:35;;;;;;;;;;;18.70;73.40;;;;;;5005711;28;20001;-72
2024/03/15 13:01:01;;;;;;;;;;;18.60;73.00;;;;;;5004217;28;20017;-71
2024/03/15 13:03:27;;;;;;;;;;;18.20;72.80;;;;;;5004466;28;20056;-71
2024/03/15 13:05:52;;;;;;;;;;;18.10;72.60;;;;;;5005219;28;19994;-71
2024/03/15 13:08:18;;;;;;;;;;;18.10;72.60;;;;;;5002697;28;20369;-71
2024/03/15 13:10:45;;;;;;;;;;;18.10;73.70;;;;;;5003966;28;20026;-70
2024/03/15 13:13:11;;;;;;;;;;;17.90;74.50;;;;;;5002909;28;19990;-71
2024/03/15 13:15:36;;;;;;;;;;;18.50;74.30;;;;;;5002893;28;20002;-71
2024/03/15 13:18:02;;;;;;;;;;;18.70;73.70;;;;;;5002559;28;20732;-71
2024/03/15 13:20:28;;;;;;;;;;;18.20;73.20;;;;;;5006978;28;20508;-71
2024/03/15 13:22:56;;;;;;;;;;;17.70;74.60;;;;;;5007420;28;19994;-71
2024/03/15 13:25:22;;;;;;;;;;;17.80;75.10;;;;;;5002715;28;19991;-71
2024/03/15 13:27:48;;;;;;;;;;;18.10;75.50;;;;;;5006946;28;20089;-71
2024/03/15 13:30:17;;;;;;;;;;;18.20;74.50;;;;;;5004107;28;20080;-72
2024/03/15 13:32:46;;;;;;;;;;;18.40;74.70;;;;;;5002935;28;19991;-70
2024/03/15 13:35:14;;;;;;;;;;;18.40;74.60;;;;;;5002583;28;19990;-71
2024/03/15 13:37:39;;;;;;;;;;;18.50;73.50;;;;;;5008182;28;20002;-71
2024/03/15 13:40:08;;;;;;;;;;;18.60;75.60;;;;;;5007506;28;19994;-71
2024/03/15 13:42:37;;;;;;;;;;;18.70;74.60;;;;;;5009799;28;20738;-71
2024/03/15 13:45:05;;;;;;;;;;;18.50;73.30;;;;;;5006656;28;20610;-71
2024/03/15 13:47:31;;;;;;;;;;;18.60;73.40;;;;;;5006032;28;20469;-71
2024/03/15 13:49:57;;;;;;;;;;;18.90;73.30;;;;;;5006523;28;20118;-72
2024/03/15 13:52:23;;;;;;;;;;;18.30;73.90;;;;;;5011747;28;20723;-71
2024/03/15 13:54:52;;;;;;;;;;;18.00;74.70;;;;;;5009350;28;20069;-71
2024/03/15 13:57:18;;;;;;;;;;;18.30;72.30;;;;;;5005977;28;20129;-71
2024/03/15 13:59:44;;;;;;;;;;;18.40;73.30;;;;;;5006617;28;19995;-72
2024/03/15 14:02:09;;;;;;;;;;;17.90;72.40;;;;;;5006862;28;20002;-71
2024/03/15 14:04:35;;;;;;;;;;;18.10;73.30;;;;;;5006894;28;19995;-71
2024/03/15 14:07:00;;;;;;;;;;;18.20;73.30;;;;;;5006440;28;19990;-72
2024/03/15 14:09:27;;;;;;;;;;;18.00;72.60;;;;;;4999662;28;19997;-71
2024/03/15 14:11:55;;;;;;;;;;;17.80;73.70;;;;;;5007277;28;20034;-72
2024/03/15 14:14:21;;;;;;;;;;;18.20;73.50;;;;;;5008570;28;20029;-71
2024/03/15 14:16:48;;;;;;;;;;;18.60;71.50;;;;;;5008272;28;20094;-71